Time;durP1;ratioP1;P1;durP2;ratioP2;P2;SDS_P1;SDS_P2;PMS_P1;PMS_P2;Temp;Humidity;BMP_temperature;BMP_pressure;BME280_temperature;BME280_humidity;BME280_pressure;Samples;Min_cycle;Max_cycle;Signal;HPM_P1;HPM_P2
2023/06/02 00:01:19;;;;;;;1.30;1.00;;;23.80;73.20;;;;;;5093987;28;20498;-83
2023/06/02 00:03:45;;;;;;;1.50;1.20;;;23.80;73.20;;;;;;5094034;28;20528;-83
2023/06/02 00:06:15;;;;;;;1.40;1.20;;;23.80;73.30;;;;;;5094200;28;20490;-83
2023/06/02 00:08:42;;;;;;;2.50;1.10;;;23.80;73.30;;;;;;5093683;28;20442;-83
2023/06/02 00:11:10;;;;;;;1.80;1.30;;;23.80;73.20;;;;;;5093907;28;20473;-83
2023/06/02 00:13:38;;;;;;;1.83;1.00;;;23.80;73.10;;;;;;5093795;28;20508;-83
2023/06/02 00:16:06;;;;;;;1.20;0.97;;;23.80;73.00;;;;;;5093540;28;20532;-83
2023/06/02 00:18:36;;;;;;;1.20;1.10;;;23.80;73.30;;;;;;5093671;28;20493;-83
2023/06/02 00:21:03;;;;;;;1.20;1.10;;;23.70;72.90;;;;;;5093718;28;20436;-83
2023/06/02 00:23:31;;;;;;;1.90;1.20;;;23.70;73.00;;;;;;5093901;28;20990;-82
2023/06/02 00:25:58;;;;;;;2.10;1.17;;;23.70;73.10;;;;;;5093580;28;20532;-83
2023/06/02 00:28:25;;;;;;;1.50;1.20;;;23.70;72.80;;;;;;5093266;28;20502;-83
2023/06/02 00:30:52;;;;;;;1.37;1.00;;;23.70;72.90;;;;;;5093423;28;20855;-83
2023/06/02 00:33:20;;;;;;;1.30;1.10;;;23.70;73.00;;;;;;5093825;28;20440;-85
2023/06/02 00:35:47;;;;;;;1.30;1.20;;;23.70;72.70;;;;;;5093456;28;21016;-83
2023/06/02 00:38:14;;;;;;;1.97;1.30;;;23.70;72.90;;;;;;5093762;28;20819;-82
2023/06/02 00:40:42;;;;;;;2.10;1.30;;;23.70;72.90;;;;;;5093226;28;20445;-83
2023/06/02 00:43:09;;;;;;;1.40;1.10;;;23.70;72.80;;;;;;5093420;28;20528;-84
2023/06/02 00:45:36;;;;;;;1.43;1.33;;;23.70;72.70;;;;;;5093223;28;20567;-83
2023/06/02 00:48:03;;;;;;;1.20;1.00;;;23.70;72.80;;;;;;5093430;28;20446;-83
2023/06/02 00:50:30;;;;;;;1.20;1.00;;;23.70;72.80;;;;;;5093168;28;20943;-83
2023/06/02 00:52:59;;;;;;;1.17;1.00;;;23.70;72.80;;;;;;5093127;28;20447;-83
2023/06/02 00:55:28;;;;;;;1.93;1.23;;;23.70;72.60;;;;;;5093197;28;20443;-83
2023/06/02 00:57:58;;;;;;;1.20;1.10;;;23.70;72.50;;;;;;5093173;28;20516;-83
2023/06/02 01:00:26;;;;;;;1.10;1.00;;;23.70;72.70;;;;;;5093110;28;20478;-83
2023/06/02 01:02:53;;;;;;;2.13;1.30;;;23.70;72.70;;;;;;5093382;28;20445;-83
2023/06/02 01:05:20;;;;;;;1.30;1.13;;;23.70;72.50;;;;;;5092977;28;21019;-82
2023/06/02 01:07:51;;;;;;;1.70;1.33;;;23.70;72.50;;;;;;5093311;28;20435;-83
2023/06/02 01:10:18;;;;;;;1.40;1.30;;;23.70;72.50;;;;;;5093244;28;20930;-83
2023/06/02 01:12:45;;;;;;;1.20;1.00;;;23.70;72.30;;;;;;5092767;28;20471;-83
2023/06/02 01:15:13;;;;;;;5.23;1.57;;;23.70;72.50;;;;;;5093250;28;20506;-83
2023/06/02 01:17:45;;;;;;;2.50;1.10;;;23.70;72.40;;;;;;5093175;28;20439;-82
2023/06/02 01:20:13;;;;;;;1.37;1.00;;;23.70;72.40;;;;;;5093145;28;20450;-82
2023/06/02 01:22:44;;;;;;;1.97;1.20;;;23.70;72.30;;;;;;5093094;28;20475;-82
2023/06/02 01:25:21;;;;;;;1.37;1.27;;;23.70;72.50;;;;;;5092956;28;20484;-82
2023/06/02 01:27:48;;;;;;;1.47;1.00;;;23.70;72.50;;;;;;5095348;28;20495;-82
2023/06/02 01:30:15;;;;;;;1.73;1.30;;;23.70;73.10;;;;;;5097194;28;20467;-82
2023/06/02 01:32:51;;;;;;;1.40;1.20;;;23.60;72.10;;;;;;5096933;28;20464;-81
2023/06/02 01:35:20;;;;;;;1.53;1.10;;;23.70;72.30;;;;;;5096912;28;20445;-82
2023/06/02 01:37:54;;;;;;;1.23;1.10;;;23.60;72.30;;;;;;5096737;28;20793;-82
2023/06/02 01:40:24;;;;;;;1.40;1.10;;;23.60;72.20;;;;;;5096814;28;20446;-82
2023/06/02 01:42:53;;;;;;;1.20;0.90;;;23.60;72.10;;;;;;5096634;28;20441;-81
2023/06/02 01:45:24;;;;;;;1.50;1.13;;;23.60;72.20;;;;;;5096686;28;20494;-81
2023/06/02 01:47:51;;;;;;;1.63;1.27;;;23.60;72.20;;;;;;5096354;28;20930;-82
2023/06/02 01:50:18;;;;;;;1.70;1.30;;;23.60;72.10;;;;;;5096579;28;20454;-82
2023/06/02 01:52:44;;;;;;;1.40;1.30;;;23.60;72.00;;;;;;5096606;28;20436;-82
2023/06/02 01:55:11;;;;;;;1.53;1.30;;;23.60;72.00;;;;;;5096449;28;20441;-83
2023/06/02 01:57:39;;;;;;;1.50;1.40;;;23.60;72.10;;;;;;5096423;28;20455;-82
2023/06/02 02:00:08;;;;;;;1.10;1.00;;;23.60;72.10;;;;;;5096063;28;20447;-82
2023/06/02 02:02:35;;;;;;;1.87;1.50;;;23.60;72.20;;;;;;5096374;28;20452;-82
2023/06/02 02:05:02;;;;;;;1.70;1.30;;;23.60;72.00;;;;;;5096140;28;20489;-82
2023/06/02 02:07:29;;;;;;;1.63;1.33;;;23.60;72.10;;;;;;5096282;28;20514;-83
2023/06/02 02:09:56;;;;;;;1.60;1.30;;;23.60;72.00;;;;;;5096036;28;20459;-82
2023/06/02 02:12:23;;;;;;;2.13;1.40;;;23.60;72.10;;;;;;5096202;28;20477;-82
2023/06/02 02:14:56;;;;;;;1.30;1.00;;;23.60;71.90;;;;;;5096233;28;20954;-81
2023/06/02 02:17:25;;;;;;;1.43;1.33;;;23.60;71.90;;;;;;5096147;28;20440;-82
2023/06/02 02:19:55;;;;;;;1.17;1.07;;;23.60;71.90;;;;;;5095885;28;20447;-82
2023/06/02 02:22:23;;;;;;;2.13;1.20;;;23.60;71.90;;;;;;5095980;28;20440;-82
2023/06/02 02:24:50;;;;;;;1.10;1.00;;;23.50;71.50;;;;;;5095896;28;20471;-82
2023/06/02 02:27:17;;;;;;;2.20;1.10;;;23.60;72.00;;;;;;5095867;28;20455;-82
2023/06/02 02:29:45;;;;;;;1.90;1.33;;;23.50;71.90;;;;;;5095635;28;20442;-82
2023/06/02 02:32:13;;;;;;;1.40;1.00;;;23.60;71.90;;;;;;5095913;28;20437;-82
2023/06/02 02:34:39;;;;;;;1.57;1.43;;;23.60;71.70;;;;;;5095645;28;20450;-82
2023/06/02 02:37:10;;;;;;;1.40;1.13;;;23.50;71.70;;;;;;5095802;28;20800;-82
2023/06/02 02:39:37;;;;;;;1.80;1.23;;;23.60;71.70;;;;;;5094414;28;20440;-82
2023/06/02 02:42:04;;;;;;;1.83;1.20;;;23.50;71.60;;;;;;5095565;28;20927;-82
2023/06/02 02:44:31;;;;;;;1.50;1.10;;;23.60;71.80;;;;;;5095464;28;20839;-82
2023/06/02 02:46:59;;;;;;;1.40;1.30;;;23.60;72.00;;;;;;5095459;28;20436;-82
2023/06/02 02:49:27;;;;;;;1.63;1.10;;;23.60;71.70;;;;;;5095383;28;20440;-82
2023/06/02 02:51:54;;;;;;;1.43;1.20;;;23.60;71.80;;;;;;5095259;28;20444;-82
2023/06/02 02:54:21;;;;;;;1.60;1.20;;;23.50;71.60;;;;;;5095314;28;20449;-82
2023/06/02 02:56:48;;;;;;;1.53;1.43;;;23.50;71.70;;;;;;5095249;28;20509;-82
2023/06/02 02:59:15;;;;;;;1.23;1.13;;;23.60;71.80;;;;;;5095395;28;20448;-82
2023/06/02 03:01:43;;;;;;;1.50;1.23;;;23.50;71.70;;;;;;5095175;28;20562;-81
2023/06/02 03:04:11;;;;;;;1.80;1.40;;;23.50;71.70;;;;;;5094860;28;20945;-82
2023/06/02 03:06:40;;;;;;;1.60;1.27;;;23.50;71.70;;;;;;5095160;28;20443;-82
2023/06/02 03:09:08;;;;;;;1.40;1.13;;;23.50;72.40;;;;;;5095142;28;20471;-82
2023/06/02 03:11:35;;;;;;;1.70;1.60;;;23.50;71.80;;;;;;5094738;28;20836;-82
2023/06/02 03:14:01;;;;;;;1.40;1.13;;;23.50;71.50;;;;;;5095121;28;20439;-82
2023/06/02 03:16:29;;;;;;;1.50;1.30;;;23.50;71.60;;;;;;5095133;28;20456;-82
2023/06/02 03:18:56;;;;;;;1.30;1.20;;;23.50;71.50;;;;;;5094117;28;20790;-81
2023/06/02 03:21:23;;;;;;;1.70;1.60;;;23.50;71.50;;;;;;5094828;28;20794;-81
2023/06/02 03:23:51;;;;;;;1.27;1.13;;;23.50;71.50;;;;;;5094629;28;20443;-81
2023/06/02 03:26:25;;;;;;;1.23;1.13;;;23.50;71.60;;;;;;5094362;28;20486;-81
2023/06/02 03:28:52;;;;;;;1.27;1.10;;;23.50;71.60;;;;;;5094616;28;20447;-81
2023/06/02 03:31:18;;;;;;;1.50;1.40;;;23.50;71.60;;;;;;5094672;28;20442;-81
2023/06/02 03:33:46;;;;;;;1.63;1.30;;;23.50;71.60;;;;;;5094290;28;20446;-82
2023/06/02 03:36:12;;;;;;;1.40;1.20;;;23.40;71.30;;;;;;5094181;28;20524;-81
2023/06/02 03:38:39;;;;;;;1.90;1.10;;;23.50;71.60;;;;;;5093599;28;20475;-82
2023/06/02 03:41:08;;;;;;;1.40;1.17;;;23.60;71.70;;;;;;5093880;28;20446;-82
2023/06/02 03:43:34;;;;;;;2.23;1.10;;;23.50;71.60;;;;;;5094264;28;20934;-84
2023/06/02 03:46:01;;;;;;;2.37;1.40;;;23.40;71.60;;;;;;5094100;28;20484;-83
2023/06/02 03:49:14;;;;;;;1.50;1.07;;;23.40;71.50;;;;;;5094055;28;20444;-82
2023/06/02 03:51:42;;;;;;;1.20;1.10;;;23.40;71.60;;;;;;5094234;28;20440;-82
2023/06/02 03:54:09;;;;;;;2.03;1.10;;;23.40;71.60;;;;;;5093968;28;20537;-82
2023/06/02 03:56:37;;;;;;;1.50;1.07;;;23.40;71.50;;;;;;5093730;28;20440;-82
2023/06/02 03:59:04;;;;;;;1.60;1.20;;;23.40;71.50;;;;;;5093612;28;20440;-81
2023/06/02 04:01:31;;;;;;;1.20;1.07;;;23.40;71.30;;;;;;5093765;28;20794;-81
2023/06/02 04:03:58;;;;;;;2.10;1.57;;;23.40;71.30;;;;;;5093871;28;20439;-81
2023/06/02 04:06:25;;;;;;;2.10;1.30;;;23.40;71.30;;;;;;5093683;28;20483;-81
2023/06/02 04:08:52;;;;;;;1.43;1.33;;;23.40;71.20;;;;;;5093782;28;20788;-82
2023/06/02 04:11:22;;;;;;;1.83;1.27;;;23.40;71.20;;;;;;5093603;28;20938;-82
2023/06/02 04:13:50;;;;;;;1.83;1.30;;;23.40;71.40;;;;;;5093959;28;20445;-82
2023/06/02 04:16:17;;;;;;;1.97;1.23;;;23.40;71.30;;;;;;5093699;28;20455;-83
2023/06/02 04:18:43;;;;;;;4.90;1.55;;;23.40;71.60;;;;;;5092407;28;20443;-83
2023/06/02 04:21:10;;;;;;;1.50;1.40;;;23.60;72.30;;;;;;5093590;28;20185;-83
2023/06/02 04:23:37;;;;;;;3.13;1.77;;;23.50;72.00;;;;;;5093487;28;20440;-82
2023/06/02 04:26:04;;;;;;;1.73;1.27;;;23.50;72.70;;;;;;5093129;28;20481;-82
2023/06/02 04:28:31;;;;;;;1.50;1.40;;;23.40;71.30;;;;;;5093365;28;20464;-82
2023/06/02 04:31:00;;;;;;;1.50;1.40;;;23.50;72.00;;;;;;5093135;28;20440;-83
2023/06/02 04:33:27;;;;;;;1.53;1.30;;;23.50;71.40;;;;;;5093380;28;20834;-82
2023/06/02 04:35:55;;;;;;;1.57;1.10;;;23.50;71.10;;;;;;5093390;28;20443;-88
2023/06/02 04:38:21;;;;;;;1.80;1.40;;;23.40;71.10;;;;;;5093444;28;20442;-82
2023/06/02 04:40:50;;;;;;;2.03;1.27;;;23.40;71.10;;;;;;5093596;28;20431;-82
2023/06/02 04:43:18;;;;;;;1.60;1.33;;;23.40;71.20;;;;;;5093570;28;20446;-83
2023/06/02 04:45:45;;;;;;;1.50;1.40;;;23.40;71.10;;;;;;5093333;28;20594;-85
2023/06/02 04:48:13;;;;;;;1.90;1.30;;;23.40;71.30;;;;;;5093002;28;20565;-85
2023/06/02 04:50:40;;;;;;;1.63;1.53;;;23.40;71.70;;;;;;5093304;28;20453;-81
2023/06/02 04:53:07;;;;;;;1.70;1.60;;;23.40;72.00;;;;;;5093521;28;20442;-81
2023/06/02 04:55:34;;;;;;;1.60;1.37;;;23.30;71.90;;;;;;5092962;28;20436;-81
2023/06/02 04:58:01;;;;;;;1.73;1.60;;;23.30;72.20;;;;;;5092812;28;20461;-81
2023/06/02 05:00:28;;;;;;;1.87;1.50;;;23.30;72.20;;;;;;5092538;28;20448;-81
2023/06/02 05:02:55;;;;;;;4.07;1.30;;;23.30;72.30;;;;;;5095978;28;20435;-82
2023/06/02 05:05:23;;;;;;;1.63;1.53;;;23.40;72.40;;;;;;5096918;28;20471;-85
2023/06/02 05:07:50;;;;;;;2.50;1.40;;;23.20;72.30;;;;;;5097160;28;20497;-84
2023/06/02 05:10:17;;;;;;;2.40;1.70;;;23.20;72.30;;;;;;5096666;28;20471;-81
2023/06/02 05:12:43;;;;;;;2.03;1.43;;;23.20;72.40;;;;;;5096820;28;20978;-81
2023/06/02 05:15:10;;;;;;;1.70;1.40;;;23.20;72.40;;;;;;5097043;28;20445;-83
2023/06/02 05:17:37;;;;;;;2.30;1.77;;;23.20;72.40;;;;;;5096979;28;20442;-83
2023/06/02 05:20:04;;;;;;;2.63;1.40;;;23.20;72.40;;;;;;5096901;28;20447;-83
2023/06/02 05:22:32;;;;;;;4.23;1.50;;;23.30;72.10;;;;;;5096752;28;20465;-83
2023/06/02 05:25:00;;;;;;;1.60;1.47;;;23.30;71.90;;;;;;5096753;28;20444;-82
2023/06/02 05:27:27;;;;;;;2.63;2.27;;;23.30;71.80;;;;;;5097003;28;20457;-84
2023/06/02 05:29:53;;;;;;;4.93;2.43;;;23.30;71.80;;;;;;5096927;28;20443;-82
2023/06/02 05:32:24;;;;;;;2.77;2.10;;;23.30;71.90;;;;;;5096706;28;20455;-83
2023/06/02 05:34:51;;;;;;;2.70;2.10;;;23.30;71.80;;;;;;5096857;28;20444;-89
2023/06/02 05:37:17;;;;;;;3.80;2.63;;;23.50;72.40;;;;;;5096698;28;20438;-83
2023/06/02 05:39:46;;;;;;;3.40;2.60;;;23.40;72.10;;;;;;5096787;28;20910;-83
2023/06/02 05:42:12;;;;;;;2.50;1.67;;;23.40;71.90;;;;;;5096287;28;20930;-82
2023/06/02 05:44:40;;;;;;;3.20;2.10;;;23.40;71.90;;;;;;5096068;28;20948;-83
2023/06/02 05:47:07;;;;;;;3.40;1.97;;;23.40;72.00;;;;;;5096007;28;20589;-87
2023/06/02 05:49:33;;;;;;;3.57;2.50;;;23.40;72.80;;;;;;5096488;28;20447;-85
2023/06/02 05:52:00;;;;;;;2.23;1.97;;;23.40;72.70;;;;;;5096763;28;20439;-83
2023/06/02 05:54:27;;;;;;;3.00;1.70;;;23.40;72.60;;;;;;5096692;28;20535;-83
2023/06/02 05:56:55;;;;;;;2.40;2.20;;;23.40;72.40;;;;;;5097258;28;20476;-94
2023/06/02 05:59:22;;;;;;;3.07;2.10;;;23.40;72.30;;;;;;5096453;28;20554;-89
2023/06/02 06:01:48;;;;;;;5.73;1.60;;;23.40;72.00;;;;;;5096936;28;20439;-83
2023/06/02 06:04:15;;;;;;;2.37;2.17;;;23.40;72.00;;;;;;5096404;28;20435;-83
2023/06/02 06:06:42;;;;;;;2.07;1.77;;;23.40;71.90;;;;;;5096322;28;20554;-81
2023/06/02 06:09:09;;;;;;;2.30;2.10;;;23.40;72.40;;;;;;5096466;28;20437;-82
2023/06/02 06:11:36;;;;;;;2.37;1.90;;;23.40;71.90;;;;;;5096048;28;20472;-82
2023/06/02 06:14:07;;;;;;;2.90;1.90;;;23.40;71.90;;;;;;5095767;28;20954;-80
2023/06/02 06:16:34;;;;;;;1.73;1.63;;;23.40;72.10;;;;;;5095867;28;20453;-83
2023/06/02 06:19:02;;;;;;;2.10;1.80;;;23.40;71.90;;;;;;5095974;28;20435;-83
2023/06/02 06:21:29;;;;;;;2.10;1.90;;;23.40;71.90;;;;;;5095969;28;20833;-82
2023/06/02 06:23:56;;;;;;;2.70;1.93;;;23.40;72.00;;;;;;5095844;28;20447;-82
2023/06/02 06:26:23;;;;;;;2.20;1.90;;;23.40;72.20;;;;;;5095471;28;20494;-82
2023/06/02 06:28:49;;;;;;;2.50;2.30;;;23.50;72.70;;;;;;5095080;28;20448;-82
2023/06/02 06:31:17;;;;;;;2.10;1.80;;;23.40;72.10;;;;;;5094013;28;20944;-82
2023/06/02 06:33:44;;;;;;;1.87;1.63;;;23.40;72.00;;;;;;5095283;28;20444;-82
2023/06/02 06:36:12;;;;;;;2.03;1.83;;;23.60;71.90;;;;;;5095165;28;20439;-82
2023/06/02 06:38:39;;;;;;;3.67;2.17;;;23.40;71.50;;;;;;5095218;28;20435;-82
2023/06/02 06:41:05;;;;;;;2.13;1.93;;;23.40;71.70;;;;;;5095018;28;20440;-82
2023/06/02 06:43:32;;;;;;;2.00;1.70;;;23.40;71.70;;;;;;5095179;28;20451;-82
2023/06/02 06:46:00;;;;;;;2.90;1.93;;;23.40;71.70;;;;;;5095498;28;20483;-82
2023/06/02 06:48:28;;;;;;;1.93;1.70;;;23.40;72.50;;;;;;5095422;28;20436;-82
2023/06/02 06:50:55;;;;;;;1.90;1.67;;;23.40;71.70;;;;;;5094615;28;20926;-84
2023/06/02 06:53:22;;;;;;;1.67;1.57;;;23.40;71.70;;;;;;5095164;28;20428;-82
2023/06/02 06:55:49;;;;;;;2.63;2.40;;;23.40;71.70;;;;;;5095399;28;20535;-82
2023/06/02 06:58:15;;;;;;;2.60;2.00;;;23.40;71.60;;;;;;5095145;28;20455;-83
2023/06/02 07:00:42;;;;;;;2.57;1.97;;;23.40;71.60;;;;;;5095203;28;20435;-82
2023/06/02 07:03:09;;;;;;;1.80;1.67;;;23.60;71.90;;;;;;5095272;28;20437;-81
2023/06/02 07:05:37;;;;;;;1.60;1.50;;;23.40;71.60;;;;;;5094960;28;20432;-91
2023/06/02 07:08:04;;;;;;;1.90;1.67;;;23.40;71.60;;;;;;5095050;28;20446;-82
2023/06/02 07:10:30;;;;;;;1.73;1.60;;;23.40;71.70;;;;;;5094827;28;20436;-81
2023/06/02 07:12:57;;;;;;;2.67;1.97;;;23.40;71.60;;;;;;5094938;28;20477;-80
2023/06/02 07:15:24;;;;;;;1.97;1.50;;;23.40;71.80;;;;;;5094734;28;20435;-81
2023/06/02 07:17:51;;;;;;;1.67;1.57;;;23.40;71.70;;;;;;5094577;28;20433;-81
2023/06/02 07:20:17;;;;;;;2.20;1.60;;;23.40;71.70;;;;;;5094684;28;20746;-82
2023/06/02 07:22:45;;;;;;;1.93;1.50;;;23.40;71.70;;;;;;5094791;28;20440;-82
2023/06/02 07:25:12;;;;;;;1.80;1.70;;;23.40;71.90;;;;;;5093866;28;20439;-81
2023/06/02 07:27:39;;;;;;;2.67;2.00;;;23.40;71.90;;;;;;5094464;28;20495;-85
2023/06/02 07:30:07;;;;;;;1.70;1.43;;;23.40;71.90;;;;;;5094591;28;21035;-83
2023/06/02 07:32:34;;;;;;;1.80;1.57;;;23.50;71.90;;;;;;5084350;28;20463;-82
2023/06/02 07:35:01;;;;;;;2.90;1.83;;;23.40;72.70;;;;;;5075126;28;20467;-84
2023/06/02 07:37:28;;;;;;;2.00;1.70;;;23.40;71.80;;;;;;5090095;28;20903;-81
2023/06/02 07:39:57;;;;;;;2.00;1.80;;;23.60;71.90;;;;;;5094298;28;20439;-86
2023/06/02 07:42:23;;;;;;;1.70;1.60;;;23.50;71.80;;;;;;5094012;28;20442;-81
2023/06/02 07:44:50;;;;;;;3.13;1.87;;;23.50;71.90;;;;;;5094414;28;20493;-80
2023/06/02 07:47:17;;;;;;;1.70;1.60;;;23.50;71.80;;;;;;5094101;28;20484;-81
2023/06/02 07:49:44;;;;;;;2.50;1.73;;;23.50;71.80;;;;;;5094051;28;20447;-80
2023/06/02 07:52:11;;;;;;;2.73;1.60;;;23.40;71.70;;;;;;5094082;28;20450;-80
2023/06/02 07:54:37;;;;;;;2.00;1.77;;;23.50;71.80;;;;;;5094053;28;20440;-80
2023/06/02 07:57:06;;;;;;;2.70;1.97;;;23.50;71.70;;;;;;5094138;28;21050;-82
2023/06/02 07:59:33;;;;;;;1.80;1.63;;;23.50;71.80;;;;;;5093973;28;20796;-81
2023/06/02 08:02:00;;;;;;;3.97;1.50;;;23.50;71.80;;;;;;5093830;28;20441;-81
2023/06/02 08:04:27;;;;;;;1.83;1.73;;;23.50;72.10;;;;;;5093820;28;20427;-80
2023/06/02 08:06:54;;;;;;;2.00;1.80;;;23.50;72.20;;;;;;5093600;28;21078;-82
2023/06/02 08:09:22;;;;;;;1.60;1.40;;;23.50;72.10;;;;;;5093892;28;20524;-81
2023/06/02 08:11:49;;;;;;;2.13;1.80;;;23.50;72.00;;;;;;5093609;28;20467;-82
2023/06/02 08:14:17;;;;;;;1.90;1.30;;;23.50;72.10;;;;;;5093775;28;20436;-83
2023/06/02 08:16:45;;;;;;;2.07;1.80;;;23.50;72.20;;;;;;5093186;28;20443;-82
2023/06/02 08:19:12;;;;;;;1.87;1.70;;;23.60;72.30;;;;;;5093520;28;20439;-82
2023/06/02 08:21:40;;;;;;;1.50;1.40;;;23.60;72.60;;;;;;5093745;28;20931;-81
2023/06/02 08:24:07;;;;;;;1.70;1.60;;;23.60;72.60;;;;;;5093820;28;20463;-82
2023/06/02 08:26:34;;;;;;;2.03;1.67;;;23.60;72.70;;;;;;5093786;28;20489;-83
2023/06/02 08:29:00;;;;;;;4.07;1.60;;;23.60;72.70;;;;;;5093480;28;20470;-81
2023/06/02 08:31:28;;;;;;;2.17;1.97;;;23.60;72.90;;;;;;5093570;28;20439;-80
2023/06/02 08:33:56;;;;;;;1.60;1.50;;;23.60;73.30;;;;;;5093494;28;20503;-81
2023/06/02 08:36:23;;;;;;;1.90;1.70;;;23.60;73.20;;;;;;5093479;28;20449;-82
2023/06/02 08:38:51;;;;;;;1.80;1.60;;;23.60;73.20;;;;;;5093345;28;20496;-82
2023/06/02 08:41:18;;;;;;;2.03;1.63;;;23.60;73.10;;;;;;5093407;28;20978;-80
2023/06/02 08:43:45;;;;;;;1.73;1.50;;;23.60;72.40;;;;;;5093401;28;20447;-81
2023/06/02 08:46:14;;;;;;;2.17;1.77;;;23.60;73.20;;;;;;5093138;28;20483;-83
2023/06/02 08:48:45;;;;;;;2.07;1.87;;;23.60;73.40;;;;;;5093192;28;20439;-80
2023/06/02 08:51:16;;;;;;;2.53;1.43;;;23.70;73.50;;;;;;5093012;28;20438;-81
2023/06/02 08:53:43;;;;;;;2.63;1.43;;;23.70;73.40;;;;;;5093274;28;20448;-81
2023/06/02 08:56:11;;;;;;;1.60;1.50;;;23.70;73.40;;;;;;5092781;28;20439;-87
2023/06/02 08:58:38;;;;;;;2.03;1.50;;;23.80;73.50;;;;;;5091293;28;20457;-83
2023/06/02 09:01:05;;;;;;;1.77;1.60;;;23.70;73.50;;;;;;5092955;28;20440;-83
2023/06/02 09:03:31;;;;;;;1.87;1.43;;;23.80;73.50;;;;;;5092721;28;20440;-81
2023/06/02 09:06:00;;;;;;;1.70;1.43;;;23.80;73.50;;;;;;5092885;28;20440;-82
2023/06/02 09:08:29;;;;;;;2.50;1.53;;;23.80;73.40;;;;;;5092655;28;20440;-82
2023/06/02 09:10:56;;;;;;;2.00;1.40;;;23.80;73.30;;;;;;5092814;28;20787;-83
2023/06/02 09:13:30;;;;;;;2.17;1.63;;;23.90;73.40;;;;;;5092995;28;20471;-83
2023/06/02 09:15:58;;;;;;;2.07;1.70;;;23.90;73.50;;;;;;5092940;28;20469;-82
2023/06/02 09:18:25;;;;;;;2.93;1.77;;;23.90;73.50;;;;;;5092647;28;20501;-82
2023/06/02 09:20:52;;;;;;;2.13;1.60;;;23.90;73.60;;;;;;5092660;28;20801;-83
2023/06/02 09:23:21;;;;;;;1.70;1.50;;;23.90;73.50;;;;;;5093066;28;20459;-83
2023/06/02 09:25:48;;;;;;;3.63;1.83;;;23.90;73.40;;;;;;5093148;28;20459;-84
2023/06/02 09:28:14;;;;;;;2.00;1.70;;;24.00;73.50;;;;;;5092896;28;20527;-83
2023/06/02 09:30:41;;;;;;;2.10;1.37;;;24.00;73.50;;;;;;5092822;28;20456;-82
2023/06/02 09:33:11;;;;;;;1.93;1.60;;;24.00;73.40;;;;;;5092577;28;20439;-82
2023/06/02 09:35:41;;;;;;;1.23;1.13;;;24.00;73.60;;;;;;5092877;28;20438;-82
2023/06/02 09:38:10;;;;;;;1.80;1.33;;;24.00;73.60;;;;;;5077974;28;20460;-81
2023/06/02 09:40:40;;;;;;;1.87;1.60;;;24.00;73.50;;;;;;5078819;28;20448;-84
2023/06/02 09:43:08;;;;;;;3.30;1.53;;;23.90;73.40;;;;;;5092563;28;20492;-83
2023/06/02 09:46:03;;;;;;;1.83;1.60;;;23.90;73.50;;;;;;5092685;28;20443;-83
2023/06/02 09:48:30;;;;;;;3.10;1.53;;;24.00;73.70;;;;;;5094672;28;20491;-85
2023/06/02 09:50:58;;;;;;;1.50;1.27;;;24.00;73.70;;;;;;5096649;28;20800;-85
2023/06/02 09:53:25;;;;;;;1.70;1.40;;;24.00;73.60;;;;;;5096293;28;20453;-83
2023/06/02 09:55:54;;;;;;;1.90;1.40;;;24.00;73.70;;;;;;5096250;28;20445;-85
2023/06/02 09:58:20;;;;;;;5.00;1.43;;;24.00;73.60;;;;;;5095491;28;20535;-83
2023/06/02 10:00:48;;;;;;;1.77;1.50;;;24.10;73.80;;;;;;5095899;28;20444;-81
2023/06/02 10:03:16;;;;;;;1.90;1.43;;;24.00;73.70;;;;;;5095567;28;20459;-83
2023/06/02 10:05:51;;;;;;;1.97;1.50;;;24.00;73.80;;;;;;5095143;28;20938;-82
2023/06/02 10:08:31;;;;;;;1.90;1.50;;;24.00;73.80;;;;;;5095979;28;20488;-83
2023/06/02 10:11:07;;;;;;;2.53;1.63;;;24.00;73.80;;;;;;5095873;28;20439;-85
2023/06/02 10:14:00;;;;;;;1.90;1.27;;;24.10;74.00;;;;;;5096101;28;20439;-82
2023/06/02 10:16:46;;;;;;;2.43;1.60;;;24.10;74.20;;;;;;5092468;28;20445;-82
2023/06/02 10:19:48;;;;;;;2.10;1.40;;;24.20;74.20;;;;;;5095887;28;20441;-82
2023/06/02 10:22:48;;;;;;;2.40;1.80;;;24.10;74.00;;;;;;5095659;28;20443;-82
2023/06/02 10:25:24;;;;;;;2.63;1.40;;;24.20;74.20;;;;;;5090506;28;20464;-84
2023/06/02 10:27:52;;;;;;;3.40;1.60;;;24.10;73.90;;;;;;5095642;28;20499;-85
2023/06/02 10:30:20;;;;;;;1.70;1.57;;;24.20;74.00;;;;;;5094453;28;20452;-84
2023/06/02 10:32:48;;;;;;;2.07;1.50;;;24.20;74.00;;;;;;5095710;28;20444;-85
2023/06/02 10:35:17;;;;;;;3.10;1.77;;;24.20;73.90;;;;;;5095150;28;20456;-84
2023/06/02 10:37:45;;;;;;;3.63;1.60;;;24.20;73.90;;;;;;5094574;28;20946;-84
2023/06/02 10:40:14;;;;;;;4.10;1.60;;;24.20;73.90;;;;;;5094527;28;20449;-84
2023/06/02 10:43:12;;;;;;;3.10;1.53;;;24.20;74.10;;;;;;5094639;28;20807;-85
2023/06/02 10:45:41;;;;;;;2.13;1.50;;;24.20;74.00;;;;;;5094478;28;20445;-84
2023/06/02 10:48:36;;;;;;;1.67;1.43;;;24.20;74.00;;;;;;5094136;28;20922;-84
2023/06/02 10:51:03;;;;;;;4.60;1.63;;;24.20;73.90;;;;;;5094411;28;20465;-84
2023/06/02 10:53:30;;;;;;;4.43;1.90;;;24.20;74.00;;;;;;5094408;28;20446;-84
2023/06/02 10:55:57;;;;;;;2.03;1.73;;;24.20;73.90;;;;;;5095189;28;20443;-84
2023/06/02 10:58:48;;;;;;;2.10;1.60;;;24.20;73.90;;;;;;5093936;28;20447;-85
2023/06/02 11:01:49;;;;;;;3.50;1.40;;;24.20;73.90;;;;;;5093929;28;20489;-85
2023/06/02 11:04:26;;;;;;;2.37;2.00;;;24.20;73.90;;;;;;5093550;28;20452;-85
2023/06/02 11:07:12;;;;;;;3.70;2.23;;;24.30;73.90;;;;;;5093684;28;20454;-84
2023/06/02 11:09:42;;;;;;;1.67;1.47;;;24.30;74.00;;;;;;5093746;28;20815;-85
2023/06/02 11:12:09;;;;;;;2.47;1.17;;;24.30;74.00;;;;;;5094163;28;20564;-83
2023/06/02 11:15:17;;;;;;;2.07;1.20;;;24.30;74.00;;;;;;5095183;28;20433;-83
2023/06/02 11:17:48;;;;;;;2.97;1.20;;;24.30;75.00;;;;;;5035690;28;20800;-84
2023/06/02 11:20:15;;;;;;;2.43;1.50;;;24.50;74.40;;;;;;5095201;28;20488;-83
2023/06/02 11:22:43;;;;;;;4.23;1.90;;;24.30;74.80;;;;;;5094767;28;20833;-84
2023/06/02 11:25:10;;;;;;;1.97;1.40;;;24.40;74.10;;;;;;5094854;28;20442;-83
2023/06/02 11:27:40;;;;;;;2.00;1.80;;;24.40;74.00;;;;;;5094593;28;20981;-84
2023/06/02 11:30:14;;;;;;;3.33;1.73;;;24.40;74.00;;;;;;5094612;28;20938;-83
2023/06/02 11:32:41;;;;;;;2.20;1.53;;;24.40;74.10;;;;;;5094709;28;20441;-84
2023/06/02 11:35:10;;;;;;;2.40;1.53;;;24.40;74.00;;;;;;5094496;28;20436;-84
2023/06/02 11:37:40;;;;;;;4.07;1.53;;;24.40;74.10;;;;;;5094589;28;20938;-84
2023/06/02 11:40:10;;;;;;;2.33;1.67;;;24.40;74.10;;;;;;5094732;28;20566;-85
2023/06/02 11:42:41;;;;;;;1.53;1.43;;;24.50;74.10;;;;;;5094397;28;20847;-83
2023/06/02 11:45:21;;;;;;;2.90;1.60;;;24.50;74.10;;;;;;5094566;28;20798;-83
2023/06/02 11:47:48;;;;;;;1.83;1.40;;;24.50;74.20;;;;;;5094468;28;20577;-83
2023/06/02 11:50:19;;;;;;;2.57;1.53;;;24.50;74.20;;;;;;5094563;28;20446;-83
2023/06/02 11:52:46;;;;;;;1.40;1.10;;;24.50;74.10;;;;;;5094307;28;20442;-83
2023/06/02 11:55:13;;;;;;;2.20;1.50;;;24.50;74.10;;;;;;5094534;28;20445;-83
2023/06/02 11:57:43;;;;;;;2.83;1.23;;;24.50;74.20;;;;;;5093965;28;20983;-83
2023/06/02 12:00:12;;;;;;;1.70;1.60;;;24.50;74.00;;;;;;5094001;28;20448;-84
2023/06/02 12:02:40;;;;;;;3.50;1.43;;;24.50;73.90;;;;;;5094203;28;20442;-83
2023/06/02 12:05:10;;;;;;;1.50;1.27;;;24.50;74.10;;;;;;5094012;28;20442;-84
2023/06/02 12:07:40;;;;;;;1.67;1.30;;;24.50;74.00;;;;;;5094078;28;20501;-84
2023/06/02 12:10:08;;;;;;;3.40;1.67;;;24.60;74.10;;;;;;5093851;28;20493;-83
2023/06/02 12:12:34;;;;;;;2.30;1.43;;;24.50;73.50;;;;;;5085093;28;20483;-83
2023/06/02 12:15:13;;;;;;;2.00;1.60;;;24.40;73.20;;;;;;5093374;28;20449;-83
2023/06/02 12:17:41;;;;;;;3.03;1.60;;;24.40;74.10;;;;;;5093592;28;20453;-86
2023/06/02 12:20:09;;;;;;;3.53;1.90;;;24.40;73.90;;;;;;5093967;28;20490;-83
2023/06/02 12:22:36;;;;;;;2.03;1.43;;;24.40;74.00;;;;;;5092580;28;20450;-86
2023/06/02 12:25:13;;;;;;;3.40;1.87;;;24.40;73.90;;;;;;5093329;28;20452;-82
2023/06/02 12:27:40;;;;;;;4.67;1.90;;;24.40;74.00;;;;;;5092730;28;20504;-82
2023/06/02 12:30:08;;;;;;;3.43;2.30;;;24.40;73.90;;;;;;5093375;28;20446;-86
2023/06/02 12:32:35;;;;;;;11.10;2.80;;;24.40;73.80;;;;;;5093294;28;20831;-81
2023/06/02 12:35:03;;;;;;;2.60;2.20;;;24.40;73.80;;;;;;5091817;28;20809;-81
2023/06/02 12:37:30;;;;;;;6.50;2.70;;;24.40;73.80;;;;;;5092671;28;20473;-81
2023/06/02 12:39:56;;;;;;;12.70;4.43;;;24.40;74.00;;;;;;5092192;28;20440;-81
2023/06/02 12:42:25;;;;;;;4.47;2.83;;;24.40;74.00;;;;;;5092354;28;20475;-81
2023/06/02 12:44:54;;;;;;;8.43;3.40;;;24.40;74.00;;;;;;5092111;28;20476;-81
2023/06/02 12:47:21;;;;;;;8.83;3.63;;;24.40;74.10;;;;;;5091441;28;20443;-81
2023/06/02 12:49:52;;;;;;;8.53;2.90;;;24.40;73.70;;;;;;5091655;28;20781;-81
2023/06/02 12:52:19;;;;;;;6.93;3.50;;;24.40;73.70;;;;;;5092242;28;20544;-81
2023/06/02 12:54:45;;;;;;;4.17;2.60;;;24.40;73.70;;;;;;5092025;28;20438;-81
2023/06/02 12:57:12;;;;;;;6.53;3.50;;;24.40;73.60;;;;;;5091722;28;20468;-82